createdAt,value
2022-11-24T00:01:05.236Z,4.97
2022-11-24T00:03:32.796Z,8.57
2022-11-24T00:06:03.397Z,5.72
2022-11-24T00:08:30.865Z,6.60
2022-11-24T00:11:03.077Z,5.97
2022-11-24T00:13:30.482Z,4.57
2022-11-24T00:16:06.368Z,5.75
2022-11-24T00:18:33.784Z,8.90
2022-11-24T00:21:01.175Z,6.55
2022-11-24T00:23:28.656Z,8.73
2022-11-24T00:25:56.115Z,9.43
2022-11-24T00:28:23.498Z,8.98
2022-11-24T00:30:50.904Z,6.90
2022-11-24T00:33:19.679Z,8.30
2022-11-24T00:35:47.424Z,8.52
2022-11-24T00:38:14.836Z,7.10
2022-11-24T00:40:42.205Z,8.63
2022-11-24T00:43:09.676Z,6.47
2022-11-24T00:45:37.110Z,7.45
2022-11-24T00:48:04.617Z,7.47
2022-11-24T00:50:33.333Z,6.38
2022-11-24T00:53:00.735Z,6.88
2022-11-24T00:55:28.352Z,10.40
2022-11-24T00:57:55.736Z,9.00
2022-11-24T01:00:23.127Z,7.18
2022-11-24T01:02:50.608Z,8.30
2022-11-24T01:05:18.091Z,6.75
2022-11-24T01:07:46.882Z,8.68
2022-11-24T01:10:14.305Z,8.43
2022-11-24T01:12:41.781Z,5.90
2022-11-24T01:15:09.523Z,7.00
2022-11-24T01:17:36.910Z,8.52
2022-11-24T01:20:04.836Z,8.73
2022-11-24T01:22:32.415Z,4.82
2022-11-24T01:25:01.162Z,12.57
2022-11-24T01:27:28.553Z,7.75
2022-11-24T01:29:55.950Z,6.53
2022-11-24T01:32:23.392Z,7.53
2022-11-24T01:34:50.760Z,7.95
2022-11-24T01:37:18.127Z,7.63
2022-11-24T01:39:45.551Z,7.63
2022-11-24T01:42:14.363Z,6.05
2022-11-24T01:44:42.235Z,8.88
2022-11-24T01:47:20.520Z,6.43
2022-11-24T01:49:49.479Z,7.95
2022-11-24T01:52:18.634Z,7.13
2022-11-24T01:54:47.998Z,6.35
2022-11-24T01:57:18.518Z,8.98
2022-11-24T01:59:47.482Z,6.78
2022-11-24T02:02:15.215Z,5.40
2022-11-24T02:04:42.967Z,5.00
2022-11-24T02:07:10.691Z,5.50
2022-11-24T02:09:41.559Z,9.48
2022-11-24T02:12:09.304Z,6.90
2022-11-24T02:14:39.444Z,6.72
2022-11-24T02:17:06.884Z,6.97
2022-11-24T02:19:38.554Z,6.38
2022-11-24T02:22:06.259Z,9.43
2022-11-24T02:24:38.420Z,6.10
2022-11-24T02:27:07.276Z,8.25
2022-11-24T02:29:34.731Z,5.35
2022-11-24T02:32:04.356Z,6.10
2022-11-24T02:34:31.886Z,7.13
2022-11-24T02:36:59.550Z,8.50
2022-11-24T02:39:26.992Z,8.57
2022-11-24T02:41:57.790Z,8.48
2022-11-24T02:44:29.633Z,9.10
2022-11-24T02:47:03.015Z,5.80
2022-11-24T02:49:30.619Z,11.27
2022-11-24T02:51:58.041Z,6.03
2022-11-24T02:54:25.496Z,8.75
2022-11-24T02:56:52.879Z,13.02
2022-11-24T02:59:20.351Z,6.70
2022-11-24T03:01:49.171Z,9.25
2022-11-24T03:04:16.819Z,8.63
2022-11-24T03:06:44.321Z,10.88
2022-11-24T03:09:11.716Z,9.75
2022-11-24T03:11:39.217Z,6.53
2022-11-24T03:14:06.714Z,11.68
2022-11-24T03:16:34.376Z,10.23
2022-11-24T03:19:03.111Z,9.10
2022-11-24T03:21:30.527Z,10.77
2022-11-24T03:23:57.930Z,9.15
2022-11-24T03:26:26.075Z,9.75
2022-11-24T03:28:54.396Z,10.35
2022-11-24T03:31:22.099Z,7.47
2022-11-24T03:33:49.541Z,11.73
2022-11-24T03:36:18.456Z,7.18
2022-11-24T03:38:45.880Z,7.40
2022-11-24T03:41:13.404Z,10.73
2022-11-24T03:43:44.073Z,9.45
2022-11-24T03:46:11.989Z,11.30
2022-11-24T03:48:39.455Z,7.78
2022-11-24T03:51:07.059Z,6.40
2022-11-24T03:53:35.806Z,7.35
2022-11-24T03:56:03.913Z,12.50
2022-11-24T03:58:31.663Z,12.52
2022-11-24T04:00:59.161Z,9.60
2022-11-24T04:03:26.739Z,11.88
2022-11-24T04:05:54.145Z,10.68
2022-11-24T04:08:21.823Z,12.07
2022-11-24T04:10:52.485Z,10.63
2022-11-24T04:13:20.334Z,10.30
2022-11-24T04:15:47.762Z,7.47
2022-11-24T04:18:15.305Z,10.57
2022-11-24T04:20:43.297Z,11.13
2022-11-24T04:23:11.100Z,13.30
2022-11-24T04:25:38.559Z,15.02
2022-11-24T04:28:07.302Z,11.57
2022-11-24T04:30:36.068Z,9.45
2022-11-24T04:33:03.871Z,11.43
2022-11-24T04:35:31.291Z,12.27
2022-11-24T04:37:58.665Z,17.58
2022-11-24T04:40:26.045Z,17.45
2022-11-24T04:42:54.563Z,12.98
2022-11-24T04:45:23.456Z,14.40
2022-11-24T04:47:50.922Z,12.60
2022-11-24T04:50:18.757Z,7.95
2022-11-24T04:52:46.269Z,15.68
2022-11-24T04:55:13.699Z,10.95
2022-11-24T04:57:41.265Z,8.27
2022-11-24T05:00:09.363Z,11.38
2022-11-24T05:02:38.139Z,11.63
2022-11-24T05:05:06.103Z,10.93
2022-11-24T05:07:33.548Z,10.05
2022-11-24T05:10:18.723Z,8.57
2022-11-24T05:12:51.119Z,11.25
2022-11-24T05:15:18.874Z,13.57
2022-11-24T05:17:47.652Z,10.65
2022-11-24T05:20:15.368Z,7.28
2022-11-24T05:22:42.736Z,13.77
2022-11-24T05:25:10.436Z,8.55
2022-11-24T05:27:38.012Z,9.40
2022-11-24T05:30:06.000Z,11.77
2022-11-24T05:32:33.443Z,9.80
2022-11-24T05:35:03.440Z,10.50
2022-11-24T05:37:31.256Z,13.65
2022-11-24T05:39:58.658Z,19.50
2022-11-24T05:42:47.704Z,18.77
2022-11-24T05:45:16.706Z,12.00
2022-11-24T05:47:44.072Z,11.60
2022-11-24T05:50:13.932Z,9.93
2022-11-24T05:55:09.493Z,8.45
2022-11-24T05:57:36.867Z,7.75
2022-11-24T06:00:04.933Z,9.70
2022-11-24T06:02:32.494Z,11.07
2022-11-24T06:04:59.988Z,7.88
2022-11-24T06:07:28.746Z,8.52
2022-11-24T06:09:56.141Z,12.57
2022-11-24T06:12:23.526Z,10.55
2022-11-24T06:14:50.900Z,9.70
2022-11-24T06:17:18.287Z,11.35
2022-11-24T06:19:47.856Z,13.00
2022-11-24T06:22:15.259Z,8.75
2022-11-24T06:24:44.056Z,8.43
2022-11-24T06:27:12.259Z,9.35
2022-11-24T06:29:39.947Z,19.67
2022-11-24T06:32:07.541Z,11.68
2022-11-24T06:34:35.175Z,17.75
2022-11-24T06:37:02.792Z,14.05
2022-11-24T06:39:30.196Z,12.73
2022-11-24T06:41:59.174Z,9.68
2022-11-24T06:44:26.823Z,14.93
2022-11-24T06:46:54.189Z,10.18
2022-11-24T06:49:21.555Z,12.90
2022-11-24T06:51:52.288Z,8.88
2022-11-24T06:54:21.013Z,15.95
2022-11-24T06:56:48.403Z,11.80
2022-11-24T06:59:18.821Z,15.20
2022-11-24T07:01:46.856Z,15.32
2022-11-24T07:04:14.839Z,15.05
2022-11-24T07:06:42.540Z,15.52
2022-11-24T07:09:10.290Z,12.25
2022-11-24T07:11:38.064Z,13.45
2022-11-24T07:14:05.942Z,17.02
2022-11-24T07:16:35.107Z,13.68
2022-11-24T07:19:03.126Z,9.30
2022-11-24T07:21:30.753Z,11.80
2022-11-24T07:23:58.731Z,12.77
2022-11-24T07:26:26.886Z,10.38
2022-11-24T07:28:54.422Z,16.02
2022-11-24T07:31:24.760Z,11.55
2022-11-24T07:33:54.329Z,13.40
2022-11-24T07:36:22.244Z,13.52
2022-11-24T07:38:51.056Z,15.00
2022-11-24T07:41:20.217Z,14.25
2022-11-24T07:43:48.049Z,9.02
2022-11-24T07:46:16.519Z,11.07
2022-11-24T07:48:44.251Z,16.65
2022-11-24T07:51:13.129Z,20.13
2022-11-24T07:53:40.748Z,17.13
2022-11-24T07:56:08.667Z,27.00
2022-11-24T07:58:37.049Z,44.00
2022-11-24T08:01:12.140Z,20.77
2022-11-24T08:03:39.691Z,23.13
2022-11-24T08:06:23.957Z,12.77
2022-11-24T08:08:54.126Z,14.23
2022-11-24T08:11:21.696Z,15.85
2022-11-24T08:13:49.147Z,17.52
2022-11-24T08:16:17.369Z,13.55
2022-11-24T08:18:45.500Z,12.95
2022-11-24T08:21:14.017Z,13.50
2022-11-24T08:23:41.518Z,15.13
2022-11-24T08:26:13.667Z,16.15
2022-11-24T08:28:41.079Z,12.75
2022-11-24T08:31:09.891Z,11.52
2022-11-24T08:33:37.772Z,12.98
2022-11-24T08:36:06.024Z,16.73
2022-11-24T08:38:33.404Z,12.32
2022-11-24T08:41:01.378Z,12.38
2022-11-24T08:43:30.406Z,11.77
2022-11-24T08:46:00.208Z,9.83
2022-11-24T08:50:57.259Z,14.60
2022-11-24T08:53:24.737Z,16.05
2022-11-24T08:55:52.148Z,14.63
2022-11-24T08:58:19.549Z,13.38
2022-11-24T09:00:48.294Z,13.15
2022-11-24T09:03:15.712Z,19.15
2022-11-24T09:05:51.579Z,13.13
2022-11-24T09:08:20.605Z,10.15
2022-11-24T09:10:50.202Z,13.02
2022-11-24T09:13:17.618Z,12.25
2022-11-24T09:15:44.989Z,15.52
2022-11-24T09:18:13.708Z,12.70
2022-11-24T09:20:41.128Z,11.90
2022-11-24T09:23:08.538Z,14.13
2022-11-24T09:25:35.988Z,12.00
2022-11-24T09:28:03.418Z,10.88
2022-11-24T09:30:31.012Z,10.95
2022-11-24T09:32:58.608Z,9.25
2022-11-24T09:35:27.304Z,11.02
2022-11-24T09:37:54.727Z,11.55
2022-11-24T09:40:23.355Z,12.23
2022-11-24T09:42:55.094Z,20.30
2022-11-24T09:45:57.004Z,13.73
2022-11-24T09:48:22.378Z,12.30
2022-11-24T09:50:51.640Z,12.85
2022-11-24T09:53:21.119Z,9.00
2022-11-24T09:55:50.378Z,10.88
2022-11-24T09:58:25.351Z,10.57
2022-11-24T10:00:54.214Z,9.43
2022-11-24T10:03:24.424Z,12.10
2022-11-24T10:05:53.162Z,8.52
2022-11-24T10:08:36.063Z,10.65
2022-11-24T10:11:06.373Z,9.52
2022-11-24T10:13:42.744Z,9.15
2022-11-24T10:16:13.476Z,8.70
2022-11-24T10:18:46.458Z,11.25
2022-11-24T10:21:30.557Z,7.35
2022-11-24T10:24:05.132Z,8.25
2022-11-24T10:26:35.973Z,7.68
2022-11-24T10:29:08.569Z,8.95
2022-11-24T10:31:37.154Z,12.05
2022-11-24T10:34:10.457Z,6.95
2022-11-24T10:36:44.774Z,6.75
2022-11-24T10:39:14.496Z,7.20
2022-11-24T10:41:46.508Z,6.05
2022-11-24T10:44:15.438Z,7.65
2022-11-24T10:46:44.500Z,6.18
2022-11-24T10:49:18.967Z,7.55
2022-11-24T10:51:59.433Z,7.45
2022-11-24T10:54:26.850Z,6.57
2022-11-24T10:56:55.495Z,5.78
2022-11-24T10:59:32.136Z,5.25
2022-11-24T11:02:00.615Z,4.40
2022-11-24T11:04:29.497Z,6.63
2022-11-24T11:07:15.216Z,7.20
2022-11-24T11:09:44.754Z,5.82
2022-11-24T11:12:36.251Z,5.90
2022-11-24T11:15:15.462Z,6.40
2022-11-24T11:17:44.344Z,6.13
2022-11-24T11:20:18.536Z,7.38
2022-11-24T11:22:48.932Z,10.63
2022-11-24T11:25:21.106Z,10.43
2022-11-24T11:27:50.585Z,8.48
2022-11-24T11:36:09.981Z,5.88
2022-11-24T11:38:39.751Z,8.32
2022-11-24T11:43:35.743Z,5.50
2022-11-24T11:46:04.772Z,7.20
2022-11-24T11:48:42.351Z,8.40
2022-11-24T11:51:23.785Z,4.43
2022-11-24T11:53:56.544Z,7.93
2022-11-24T11:56:26.144Z,7.63
2022-11-24T11:59:17.608Z,7.25
2022-11-24T12:01:51.149Z,7.25
2022-11-24T12:04:22.388Z,8.15
2022-11-24T12:07:00.005Z,12.05
2022-11-24T12:09:34.970Z,5.75
2022-11-24T12:12:07.926Z,8.93
2022-11-24T12:14:41.992Z,7.32
2022-11-24T12:17:13.788Z,7.65
2022-11-24T12:19:46.448Z,6.30
2022-11-24T12:22:18.333Z,9.00
2022-11-24T12:24:51.090Z,7.82
2022-11-24T12:27:27.818Z,4.78
2022-11-24T12:30:03.579Z,9.05
2022-11-24T12:32:38.919Z,11.52
2022-11-24T12:35:14.373Z,9.63
2022-11-24T12:37:49.905Z,9.15
2022-11-24T12:40:24.556Z,8.85
2022-11-24T12:42:57.660Z,8.75
2022-11-24T12:45:32.008Z,10.20
2022-11-24T12:48:10.563Z,9.27
2022-11-24T12:50:38.706Z,9.13
2022-11-24T12:53:10.885Z,9.23
2022-11-24T12:55:42.014Z,7.50
2022-11-24T12:58:12.678Z,10.40
2022-11-24T13:00:44.642Z,9.45
2022-11-24T13:03:21.214Z,8.90
2022-11-24T13:05:52.274Z,8.00
2022-11-24T13:08:20.245Z,9.63
2022-11-24T13:10:57.652Z,9.60
2022-11-24T13:13:30.830Z,7.47
2022-11-24T13:16:59.319Z,6.68
2022-11-24T13:19:02.754Z,6.50
2022-11-24T13:21:50.312Z,11.30
2022-11-24T13:24:28.397Z,8.65
2022-11-24T13:27:18.190Z,6.05
2022-11-24T13:32:33.583Z,9.52
2022-11-24T13:35:05.009Z,8.40
2022-11-24T13:37:52.750Z,7.65
2022-11-24T13:40:45.915Z,6.93
2022-11-24T13:43:24.430Z,7.20
2022-11-24T13:48:37.797Z,8.98
2022-11-24T13:51:19.442Z,9.00
2022-11-24T13:53:48.570Z,7.15
2022-11-24T13:56:26.924Z,7.05
2022-11-24T13:58:57.100Z,14.80
2022-11-24T14:01:25.302Z,7.82
2022-11-24T14:07:02.411Z,11.05
2022-11-24T14:09:35.216Z,10.80
2022-11-24T14:12:07.744Z,10.13
2022-11-24T14:14:36.894Z,8.50
2022-11-24T14:17:22.957Z,9.00
2022-11-24T14:19:52.828Z,8.85
2022-11-24T14:22:21.336Z,7.53
2022-11-24T14:24:52.983Z,8.40
2022-11-24T14:27:22.808Z,13.00
2022-11-24T14:32:22.957Z,7.45
2022-11-24T14:34:52.050Z,8.15
2022-11-24T14:37:20.161Z,11.05
2022-11-24T14:39:47.575Z,10.55
2022-11-24T14:42:19.416Z,7.60
2022-11-24T14:44:48.988Z,9.20
2022-11-24T14:47:19.881Z,11.38
2022-11-24T14:49:48.715Z,5.70
2022-11-24T14:52:16.888Z,6.45
2022-11-24T14:54:47.445Z,5.82
2022-11-24T14:57:31.023Z,7.63
2022-11-24T15:00:09.371Z,8.57
2022-11-24T15:02:40.834Z,4.13
2022-11-24T15:05:10.790Z,8.77
2022-11-24T15:07:42.200Z,8.88
2022-11-24T15:10:19.688Z,7.97
2022-11-24T15:12:51.132Z,6.72
2022-11-24T15:15:24.418Z,9.38
2022-11-24T15:17:53.348Z,11.25
2022-11-24T15:20:25.915Z,11.63
2022-11-24T15:23:12.904Z,9.32
2022-11-24T15:25:40.323Z,8.25
2022-11-24T15:28:09.798Z,10.80
2022-11-24T15:30:37.616Z,8.18
2022-11-24T15:33:13.403Z,9.30
2022-11-24T15:35:42.213Z,8.88
2022-11-24T15:38:09.753Z,8.23
2022-11-24T15:40:37.482Z,6.95
2022-11-24T15:43:15.771Z,7.28
2022-11-24T15:45:43.200Z,7.28
2022-11-24T15:48:16.300Z,6.75
2022-11-24T15:50:46.678Z,6.28
2022-11-24T15:53:17.891Z,8.48
2022-11-24T15:55:45.362Z,6.68
2022-11-24T15:58:13.334Z,7.63
2022-11-24T16:00:42.190Z,5.32
2022-11-24T16:03:44.466Z,7.32
2022-11-24T16:05:58.845Z,6.65
2022-11-24T16:08:26.265Z,10.13
2022-11-24T16:10:53.650Z,9.45
2022-11-24T16:13:21.055Z,9.00
2022-11-24T16:15:48.489Z,10.63
2022-11-24T16:18:16.206Z,8.13
2022-11-24T16:20:43.666Z,9.77
2022-11-24T16:23:12.475Z,10.52
2022-11-24T16:25:39.865Z,8.48
2022-11-24T16:28:07.759Z,6.82
2022-11-24T16:30:35.406Z,8.30
2022-11-24T16:33:03.967Z,19.10
2022-11-24T16:35:33.429Z,10.13
2022-11-24T16:38:00.905Z,12.65
2022-11-24T16:40:29.653Z,10.68
2022-11-24T16:42:58.473Z,10.80
2022-11-24T16:45:27.996Z,10.25
2022-11-24T16:47:55.724Z,10.98
2022-11-24T16:50:24.150Z,8.48
2022-11-24T16:52:51.549Z,7.75
2022-11-24T16:55:19.104Z,7.20
2022-11-24T16:57:49.409Z,7.40
2022-11-24T17:00:20.655Z,7.03
2022-11-24T17:02:48.191Z,5.30
2022-11-24T17:05:16.429Z,6.30
2022-11-24T17:07:43.853Z,5.13
2022-11-24T17:10:11.539Z,5.90
2022-11-24T17:12:42.846Z,6.47
2022-11-24T17:18:23.647Z,3.67
2022-11-24T17:20:46.911Z,2.50
2022-11-24T17:23:14.468Z,5.30
2022-11-24T17:25:41.830Z,6.15
2022-11-24T17:28:09.296Z,4.68
2022-11-24T17:30:38.827Z,4.20
2022-11-24T17:33:06.241Z,10.20
2022-11-24T17:35:34.516Z,6.40
2022-11-24T17:38:02.053Z,6.20
2022-11-24T17:40:30.868Z,4.55
2022-11-24T17:42:58.736Z,5.00
2022-11-24T17:45:26.237Z,4.35
2022-11-24T17:47:56.197Z,5.68
2022-11-24T17:50:26.108Z,5.28
2022-11-24T17:52:54.176Z,6.70
2022-11-24T17:55:22.433Z,6.57
2022-11-24T17:57:49.976Z,4.30
2022-11-24T18:00:17.785Z,2.55
2022-11-24T18:02:45.269Z,5.78
2022-11-24T18:05:14.089Z,5.35
2022-11-24T18:07:41.590Z,4.53
2022-11-24T18:10:09.595Z,3.25
2022-11-24T18:12:37.170Z,5.47
2022-11-24T18:15:04.898Z,5.90
2022-11-24T18:17:32.364Z,7.03
2022-11-24T18:19:59.903Z,4.45
2022-11-24T18:22:58.027Z,5.88
2022-11-24T18:25:16.117Z,4.93
2022-11-24T18:27:43.541Z,8.77
2022-11-24T18:30:11.128Z,10.60
2022-11-24T18:32:38.555Z,6.38
2022-11-24T18:35:06.325Z,9.55
2022-11-24T18:37:36.778Z,10.65
2022-11-24T18:40:04.327Z,10.05
2022-11-24T18:42:31.715Z,7.43
2022-11-24T18:44:59.461Z,9.07
2022-11-24T18:47:26.854Z,7.07
2022-11-24T18:49:55.693Z,9.02
2022-11-24T18:52:24.254Z,9.50
2022-11-24T18:54:53.001Z,7.05
2022-11-24T18:57:20.382Z,10.55
2022-11-24T18:59:47.828Z,7.80
2022-11-24T19:02:18.357Z,11.02
2022-11-24T19:04:48.062Z,6.47
2022-11-24T19:07:16.987Z,10.63
2022-11-24T19:09:44.523Z,9.17
2022-11-24T19:12:13.423Z,8.32
2022-11-24T19:14:46.015Z,7.78
2022-11-24T19:17:14.795Z,9.52
2022-11-24T19:19:42.399Z,7.80
2022-11-24T19:22:09.967Z,7.22
2022-11-24T19:24:37.547Z,9.73
2022-11-24T19:27:05.121Z,7.15
2022-11-24T19:29:34.809Z,6.15
2022-11-24T19:32:04.642Z,6.25
2022-11-24T19:34:32.302Z,8.88
2022-11-24T19:36:59.756Z,7.28
2022-11-24T19:39:27.178Z,5.13
2022-11-24T19:41:54.630Z,5.95
2022-11-24T19:44:24.057Z,5.20
2022-11-24T19:46:52.884Z,7.82
2022-11-24T19:49:20.706Z,8.82
2022-11-24T19:51:49.898Z,5.15
2022-11-24T19:54:17.586Z,7.15
2022-11-24T19:56:45.080Z,6.60
2022-11-24T19:59:13.986Z,8.15
2022-11-24T20:01:42.513Z,7.53
2022-11-24T20:04:12.518Z,8.05
2022-11-24T20:09:08.337Z,4.97
2022-11-24T20:11:35.742Z,8.18
2022-11-24T20:14:03.600Z,5.00
2022-11-24T20:16:31.830Z,6.45
2022-11-24T20:19:00.249Z,7.20
2022-11-24T20:21:31.121Z,5.93
2022-11-24T20:23:59.287Z,9.15
2022-11-24T20:26:28.170Z,6.55
2022-11-24T20:28:59.060Z,5.82
2022-11-24T20:31:27.308Z,4.82
2022-11-24T20:33:54.892Z,12.20
2022-11-24T20:36:23.053Z,6.18
2022-11-24T20:38:52.506Z,6.82
2022-11-24T20:41:20.751Z,8.93
2022-11-24T20:43:48.717Z,9.35
2022-11-24T20:46:17.715Z,7.10
2022-11-24T20:48:48.821Z,7.53
2022-11-24T20:51:17.931Z,9.45
2022-11-24T20:53:45.416Z,7.18
2022-11-24T20:56:15.067Z,8.18
2022-11-24T20:58:43.023Z,9.00
2022-11-24T21:01:11.304Z,10.70
2022-11-24T21:03:43.074Z,10.20
2022-11-24T21:06:11.663Z,6.10
2022-11-24T21:08:39.589Z,10.35
2022-11-24T21:11:07.722Z,8.75
2022-11-24T21:13:36.971Z,8.05
2022-11-24T21:16:12.374Z,11.38
2022-11-24T21:18:39.848Z,11.50
2022-11-24T21:21:07.674Z,7.43
2022-11-24T21:23:35.122Z,7.03
2022-11-24T21:26:05.520Z,9.18
2022-11-24T21:28:33.543Z,7.43
2022-11-24T21:31:05.569Z,7.25
2022-11-24T21:33:32.994Z,5.97
2022-11-24T21:36:01.953Z,6.32
2022-11-24T21:38:29.411Z,6.23
2022-11-24T21:40:59.831Z,9.77
2022-11-24T21:43:27.861Z,10.52
2022-11-24T21:45:55.371Z,7.88
2022-11-24T21:48:24.213Z,8.27
2022-11-24T21:50:51.647Z,11.52
2022-11-24T21:53:19.290Z,7.93
2022-11-24T21:55:54.521Z,8.80
2022-11-24T21:58:22.547Z,8.73
2022-11-24T22:00:50.063Z,6.40
2022-11-24T22:03:17.899Z,8.52
2022-11-24T22:05:55.141Z,10.73
2022-11-24T22:08:22.557Z,7.78
2022-11-24T22:10:50.068Z,8.63
2022-11-24T22:13:17.513Z,8.98
2022-11-24T22:15:44.938Z,8.80
2022-11-24T22:18:12.919Z,6.45
2022-11-24T22:20:40.333Z,7.03
2022-11-24T22:23:09.305Z,9.85
2022-11-24T22:25:36.675Z,7.10
2022-11-24T22:28:04.043Z,11.30
2022-11-24T22:30:31.527Z,7.60
2022-11-24T22:32:58.910Z,10.23
2022-11-24T22:35:26.330Z,11.32
2022-11-24T22:37:53.749Z,11.45
2022-11-24T22:40:23.565Z,10.40
2022-11-24T22:42:51.475Z,11.13
2022-11-24T22:45:19.349Z,8.35
2022-11-24T22:47:46.769Z,8.82
2022-11-24T22:50:14.722Z,9.23
2022-11-24T22:52:42.090Z,8.10
2022-11-24T22:55:09.644Z,10.50
2022-11-24T22:57:38.378Z,9.73
2022-11-24T23:00:08.272Z,9.77
2022-11-24T23:05:03.072Z,7.82
2022-11-24T23:07:30.542Z,6.15
2022-11-24T23:09:58.000Z,5.93
2022-11-24T23:12:25.378Z,11.45
2022-11-24T23:14:54.208Z,12.10
2022-11-24T23:17:21.579Z,8.93
2022-11-24T23:19:48.975Z,10.98
2022-11-24T23:22:16.325Z,6.75
2022-11-24T23:24:43.725Z,7.70
2022-11-24T23:27:11.090Z,8.77
2022-11-24T23:29:40.839Z,8.95
2022-11-24T23:32:09.554Z,7.05
2022-11-24T23:34:37.178Z,13.35
2022-11-24T23:37:04.692Z,8.05
2022-11-24T23:39:32.059Z,8.00
2022-11-24T23:41:59.419Z,9.10
2022-11-24T23:44:27.965Z,7.25
2022-11-24T23:46:55.579Z,10.32
2022-11-24T23:49:24.313Z,9.52
2022-11-24T23:51:51.699Z,10.50
2022-11-24T23:54:19.079Z,7.18
2022-11-24T23:56:46.471Z,9.50
2022-11-24T23:59:13.960Z,8.75
